sensor_id;sensor_type;location;lat;lon;timestamp;P1;durP1;ratioP1;P2;durP2;ratioP2
6739;SDS011;3407;49.882;10.920;2022-12-29T00:01:32;2.93;;;2.60;;
6739;SDS011;3407;49.882;10.920;2022-12-29T00:06:28;2.60;;;2.47;;
6739;SDS011;3407;49.882;10.920;2022-12-29T00:11:25;2.70;;;2.50;;
6739;SDS011;3407;49.882;10.920;2022-12-29T00:16:22;5.50;;;2.67;;
6739;SDS011;3407;49.882;10.920;2022-12-29T00:21:18;2.57;;;2.37;;
6739;SDS011;3407;49.882;10.920;2022-12-29T00:26:34;3.37;;;2.63;;
6739;SDS011;3407;49.882;10.920;2022-12-29T00:31:48;2.87;;;2.53;;
6739;SDS011;3407;49.882;10.920;2022-12-29T00:37:02;3.80;;;3.43;;
6739;SDS011;3407;49.882;10.920;2022-12-29T00:42:07;2.60;;;2.43;;
6739;SDS011;3407;49.882;10.920;2022-12-29T00:47:33;3.27;;;2.97;;
6739;SDS011;3407;49.882;10.920;2022-12-29T00:52:28;3.00;;;2.70;;
6739;SDS011;3407;49.882;10.920;2022-12-29T00:57:24;3.53;;;3.07;;
6739;SDS011;3407;49.882;10.920;2022-12-29T01:02:19;2.70;;;2.30;;
6739;SDS011;3407;49.882;10.920;2022-12-29T01:07:15;2.50;;;2.30;;
6739;SDS011;3407;49.882;10.920;2022-12-29T01:12:10;2.80;;;2.53;;
6739;SDS011;3407;49.882;10.920;2022-12-29T01:17:06;3.60;;;2.57;;
6739;SDS011;3407;49.882;10.920;2022-12-29T01:22:02;2.83;;;2.63;;
6739;SDS011;3407;49.882;10.920;2022-12-29T01:26:57;2.53;;;2.33;;
6739;SDS011;3407;49.882;10.920;2022-12-29T01:31:53;2.63;;;2.43;;
6739;SDS011;3407;49.882;10.920;2022-12-29T01:36:48;3.90;;;2.60;;
6739;SDS011;3407;49.882;10.920;2022-12-29T01:41:44;2.50;;;2.27;;
6739;SDS011;3407;49.882;10.920;2022-12-29T01:46:40;3.23;;;2.10;;
6739;SDS011;3407;49.882;10.920;2022-12-29T01:51:39;2.63;;;2.40;;
6739;SDS011;3407;49.882;10.920;2022-12-29T01:56:39;2.13;;;2.03;;
6739;SDS011;3407;49.882;10.920;2022-12-29T02:01:34;2.97;;;2.17;;
6739;SDS011;3407;49.882;10.920;2022-12-29T02:06:32;2.23;;;2.13;;
6739;SDS011;3407;49.882;10.920;2022-12-29T02:11:31;2.53;;;2.33;;
6739;SDS011;3407;49.882;10.920;2022-12-29T02:16:31;2.90;;;2.20;;
6739;SDS011;3407;49.882;10.920;2022-12-29T02:27:23;4.17;;;2.30;;
6739;SDS011;3407;49.882;10.920;2022-12-29T02:37:43;2.40;;;2.20;;
6739;SDS011;3407;49.882;10.920;2022-12-29T02:42:59;2.50;;;2.30;;
6739;SDS011;3407;49.882;10.920;2022-12-29T02:48:15;4.23;;;2.33;;
6739;SDS011;3407;49.882;10.920;2022-12-29T02:53:12;2.80;;;2.00;;
6739;SDS011;3407;49.882;10.920;2022-12-29T02:58:15;2.30;;;2.10;;
6739;SDS011;3407;49.882;10.920;2022-12-29T03:03:19;2.20;;;2.00;;
6739;SDS011;3407;49.882;10.920;2022-12-29T03:13:46;2.40;;;2.20;;
6739;SDS011;3407;49.882;10.920;2022-12-29T03:19:22;2.00;;;1.90;;
6739;SDS011;3407;49.882;10.920;2022-12-29T03:24:25;2.50;;;2.17;;
6739;SDS011;3407;49.882;10.920;2022-12-29T03:29:23;2.13;;;1.93;;
6739;SDS011;3407;49.882;10.920;2022-12-29T03:34:21;2.10;;;2.00;;
6739;SDS011;3407;49.882;10.920;2022-12-29T03:39:20;3.23;;;3.03;;
6739;SDS011;3407;49.882;10.920;2022-12-29T03:44:17;2.17;;;2.07;;
6739;SDS011;3407;49.882;10.920;2022-12-29T03:49:13;2.90;;;2.00;;
6739;SDS011;3407;49.882;10.920;2022-12-29T03:54:08;3.30;;;2.23;;
6739;SDS011;3407;49.882;10.920;2022-12-29T03:59:04;2.23;;;2.07;;
6739;SDS011;3407;49.882;10.920;2022-12-29T04:03:59;4.13;;;2.43;;
6739;SDS011;3407;49.882;10.920;2022-12-29T04:08:55;2.23;;;2.13;;
6739;SDS011;3407;49.882;10.920;2022-12-29T04:13:50;2.60;;;2.40;;
6739;SDS011;3407;49.882;10.920;2022-12-29T04:18:46;2.20;;;2.00;;
6739;SDS011;3407;49.882;10.920;2022-12-29T04:23:42;3.00;;;2.23;;
6739;SDS011;3407;49.882;10.920;2022-12-29T04:28:37;2.70;;;2.37;;
6739;SDS011;3407;49.882;10.920;2022-12-29T04:33:33;2.60;;;2.40;;
6739;SDS011;3407;49.882;10.920;2022-12-29T04:38:28;2.03;;;1.90;;
6739;SDS011;3407;49.882;10.920;2022-12-29T04:43:24;2.67;;;2.10;;
6739;SDS011;3407;49.882;10.920;2022-12-29T04:48:20;5.43;;;2.57;;
6739;SDS011;3407;49.882;10.920;2022-12-29T04:53:16;5.40;;;2.07;;
6739;SDS011;3407;49.882;10.920;2022-12-29T04:58:12;3.03;;;2.40;;
6739;SDS011;3407;49.882;10.920;2022-12-29T05:03:08;2.30;;;2.20;;
6739;SDS011;3407;49.882;10.920;2022-12-29T05:08:03;2.40;;;2.30;;
6739;SDS011;3407;49.882;10.920;2022-12-29T05:12:59;2.70;;;2.50;;
6739;SDS011;3407;49.882;10.920;2022-12-29T05:17:55;3.17;;;2.60;;
6739;SDS011;3407;49.882;10.920;2022-12-29T05:22:51;4.57;;;3.57;;
6739;SDS011;3407;49.882;10.920;2022-12-29T05:27:46;3.40;;;2.33;;
6739;SDS011;3407;49.882;10.920;2022-12-29T05:32:42;2.77;;;2.57;;
6739;SDS011;3407;49.882;10.920;2022-12-29T05:37:38;4.90;;;2.50;;
6739;SDS011;3407;49.882;10.920;2022-12-29T05:42:33;2.37;;;2.27;;
6739;SDS011;3407;49.882;10.920;2022-12-29T05:47:29;2.53;;;2.40;;
6739;SDS011;3407;49.882;10.920;2022-12-29T05:52:24;2.47;;;2.27;;
6739;SDS011;3407;49.882;10.920;2022-12-29T05:57:20;2.40;;;2.20;;
6739;SDS011;3407;49.882;10.920;2022-12-29T06:02:15;2.47;;;2.27;;
6739;SDS011;3407;49.882;10.920;2022-12-29T06:07:11;3.37;;;2.27;;
6739;SDS011;3407;49.882;10.920;2022-12-29T06:12:06;3.10;;;2.80;;
6739;SDS011;3407;49.882;10.920;2022-12-29T06:17:02;4.43;;;2.70;;
6739;SDS011;3407;49.882;10.920;2022-12-29T06:21:57;2.30;;;2.10;;
6739;SDS011;3407;49.882;10.920;2022-12-29T06:26:53;2.57;;;2.37;;
6739;SDS011;3407;49.882;10.920;2022-12-29T06:31:48;3.70;;;2.40;;
6739;SDS011;3407;49.882;10.920;2022-12-29T06:36:45;2.50;;;2.30;;
6739;SDS011;3407;49.882;10.920;2022-12-29T06:41:41;3.70;;;2.40;;
6739;SDS011;3407;49.882;10.920;2022-12-29T06:46:36;2.63;;;1.97;;
6739;SDS011;3407;49.882;10.920;2022-12-29T06:51:32;2.83;;;2.23;;
6739;SDS011;3407;49.882;10.920;2022-12-29T06:56:28;2.30;;;2.10;;
6739;SDS011;3407;49.882;10.920;2022-12-29T07:01:23;2.17;;;2.07;;
6739;SDS011;3407;49.882;10.920;2022-12-29T07:06:19;2.70;;;2.10;;
6739;SDS011;3407;49.882;10.920;2022-12-29T07:11:14;3.97;;;2.30;;
6739;SDS011;3407;49.882;10.920;2022-12-29T07:16:10;2.50;;;2.30;;
6739;SDS011;3407;49.882;10.920;2022-12-29T07:21:05;3.70;;;2.20;;
6739;SDS011;3407;49.882;10.920;2022-12-29T07:26:05;2.00;;;1.90;;
6739;SDS011;3407;49.882;10.920;2022-12-29T07:31:02;6.37;;;2.27;;
6739;SDS011;3407;49.882;10.920;2022-12-29T07:35:58;2.33;;;2.13;;
6739;SDS011;3407;49.882;10.920;2022-12-29T07:40:57;2.63;;;2.03;;
6739;SDS011;3407;49.882;10.920;2022-12-29T07:45:53;2.20;;;2.00;;
6739;SDS011;3407;49.882;10.920;2022-12-29T07:50:49;2.90;;;2.70;;
6739;SDS011;3407;49.882;10.920;2022-12-29T07:55:45;2.20;;;2.10;;
6739;SDS011;3407;49.882;10.920;2022-12-29T08:00:40;2.10;;;2.00;;
6739;SDS011;3407;49.882;10.920;2022-12-29T08:05:36;1.90;;;1.80;;
6739;SDS011;3407;49.882;10.920;2022-12-29T08:10:31;3.73;;;2.37;;
6739;SDS011;3407;49.882;10.920;2022-12-29T08:15:27;2.20;;;2.10;;
6739;SDS011;3407;49.882;10.920;2022-12-29T08:20:22;2.67;;;2.47;;
6739;SDS011;3407;49.882;10.920;2022-12-29T08:25:18;2.43;;;2.20;;
6739;SDS011;3407;49.882;10.920;2022-12-29T08:30:14;2.70;;;2.00;;
6739;SDS011;3407;49.882;10.920;2022-12-29T08:35:11;2.23;;;2.10;;
6739;SDS011;3407;49.882;10.920;2022-12-29T08:40:07;2.30;;;2.10;;
6739;SDS011;3407;49.882;10.920;2022-12-29T08:45:03;2.57;;;2.37;;
6739;SDS011;3407;49.882;10.920;2022-12-29T08:49:59;2.00;;;1.80;;
6739;SDS011;3407;49.882;10.920;2022-12-29T08:54:55;1.97;;;1.83;;
6739;SDS011;3407;49.882;10.920;2022-12-29T08:59:50;2.10;;;2.00;;
6739;SDS011;3407;49.882;10.920;2022-12-29T09:04:46;2.17;;;2.07;;
6739;SDS011;3407;49.882;10.920;2022-12-29T09:09:41;2.77;;;2.50;;
6739;SDS011;3407;49.882;10.920;2022-12-29T09:14:37;2.27;;;2.13;;
6739;SDS011;3407;49.882;10.920;2022-12-29T09:19:32;2.47;;;2.30;;
6739;SDS011;3407;49.882;10.920;2022-12-29T09:24:28;1.77;;;1.67;;
6739;SDS011;3407;49.882;10.920;2022-12-29T09:29:23;3.07;;;2.13;;
6739;SDS011;3407;49.882;10.920;2022-12-29T09:34:19;2.77;;;2.10;;
6739;SDS011;3407;49.882;10.920;2022-12-29T09:39:15;2.27;;;1.93;;
6739;SDS011;3407;49.882;10.920;2022-12-29T09:44:28;2.10;;;1.90;;
6739;SDS011;3407;49.882;10.920;2022-12-29T09:55:04;2.27;;;2.17;;
6739;SDS011;3407;49.882;10.920;2022-12-29T10:00:06;4.10;;;1.90;;
6739;SDS011;3407;49.882;10.920;2022-12-29T10:10:53;3.13;;;2.13;;
6739;SDS011;3407;49.882;10.920;2022-12-29T10:15:57;2.03;;;1.93;;
6739;SDS011;3407;49.882;10.920;2022-12-29T10:26:01;2.23;;;2.03;;
6739;SDS011;3407;49.882;10.920;2022-12-29T10:30:58;2.00;;;1.90;;
6739;SDS011;3407;49.882;10.920;2022-12-29T10:35:58;2.80;;;2.20;;
6739;SDS011;3407;49.882;10.920;2022-12-29T10:40:58;2.30;;;2.07;;
6739;SDS011;3407;49.882;10.920;2022-12-29T10:46:10;2.13;;;2.00;;
6739;SDS011;3407;49.882;10.920;2022-12-29T10:51:32;2.40;;;2.17;;
6739;SDS011;3407;49.882;10.920;2022-12-29T10:56:43;2.60;;;1.83;;
6739;SDS011;3407;49.882;10.920;2022-12-29T11:06:58;2.23;;;2.00;;
6739;SDS011;3407;49.882;10.920;2022-12-29T11:11:54;2.97;;;2.13;;
6739;SDS011;3407;49.882;10.920;2022-12-29T11:17:02;2.60;;;2.37;;
6739;SDS011;3407;49.882;10.920;2022-12-29T11:27:14;2.47;;;2.27;;
6739;SDS011;3407;49.882;10.920;2022-12-29T11:32:16;2.70;;;2.07;;
6739;SDS011;3407;49.882;10.920;2022-12-29T11:37:17;2.83;;;2.10;;
6739;SDS011;3407;49.882;10.920;2022-12-29T11:42:15;2.40;;;2.20;;
6739;SDS011;3407;49.882;10.920;2022-12-29T11:47:20;2.17;;;1.97;;
6739;SDS011;3407;49.882;10.920;2022-12-29T11:52:26;6.87;;;2.37;;
6739;SDS011;3407;49.882;10.920;2022-12-29T11:57:27;2.70;;;2.37;;
6739;SDS011;3407;49.882;10.920;2022-12-29T12:07:37;3.23;;;1.90;;
6739;SDS011;3407;49.882;10.920;2022-12-29T12:12:53;3.63;;;2.10;;
6739;SDS011;3407;49.882;10.920;2022-12-29T12:18:01;2.07;;;1.97;;
6739;SDS011;3407;49.882;10.920;2022-12-29T12:28:16;7.37;;;2.20;;
6739;SDS011;3407;49.882;10.920;2022-12-29T12:54:29;2.30;;;1.73;;
6739;SDS011;3407;49.882;10.920;2022-12-29T12:59:49;2.30;;;2.07;;
6739;SDS011;3407;49.882;10.920;2022-12-29T13:05:04;6.57;;;3.13;;
6739;SDS011;3407;49.882;10.920;2022-12-29T13:15:20;2.30;;;2.10;;
6739;SDS011;3407;49.882;10.920;2022-12-29T13:20:33;2.80;;;2.00;;
6739;SDS011;3407;49.882;10.920;2022-12-29T13:25:56;2.53;;;2.20;;
6739;SDS011;3407;49.882;10.920;2022-12-29T13:31:02;2.37;;;2.13;;
6739;SDS011;3407;49.882;10.920;2022-12-29T13:41:42;3.50;;;1.93;;
6739;SDS011;3407;49.882;10.920;2022-12-29T13:46:42;7.40;;;2.53;;
6739;SDS011;3407;49.882;10.920;2022-12-29T13:51:47;1.90;;;1.80;;
6739;SDS011;3407;49.882;10.920;2022-12-29T14:07:23;1.80;;;1.60;;
6739;SDS011;3407;49.882;10.920;2022-12-29T14:17:18;4.07;;;1.70;;
6739;SDS011;3407;49.882;10.920;2022-12-29T14:22:16;4.13;;;1.43;;
6739;SDS011;3407;49.882;10.920;2022-12-29T14:37:26;1.80;;;1.70;;
6739;SDS011;3407;49.882;10.920;2022-12-29T14:42:26;2.93;;;2.50;;
6739;SDS011;3407;49.882;10.920;2022-12-29T14:52:23;1.80;;;1.70;;
6739;SDS011;3407;49.882;10.920;2022-12-29T14:57:22;1.60;;;1.50;;
6739;SDS011;3407;49.882;10.920;2022-12-29T15:02:22;1.90;;;1.70;;
6739;SDS011;3407;49.882;10.920;2022-12-29T15:07:20;2.13;;;1.60;;
6739;SDS011;3407;49.882;10.920;2022-12-29T15:17:29;1.90;;;1.80;;
6739;SDS011;3407;49.882;10.920;2022-12-29T15:22:26;1.87;;;1.70;;
6739;SDS011;3407;49.882;10.920;2022-12-29T15:27:23;1.87;;;1.77;;
6739;SDS011;3407;49.882;10.920;2022-12-29T15:32:25;4.00;;;1.83;;
6739;SDS011;3407;49.882;10.920;2022-12-29T15:37:23;1.40;;;1.30;;
6739;SDS011;3407;49.882;10.920;2022-12-29T15:47:28;2.33;;;1.43;;
6739;SDS011;3407;49.882;10.920;2022-12-29T15:52:25;3.30;;;1.60;;
6739;SDS011;3407;49.882;10.920;2022-12-29T15:57:35;3.23;;;1.80;;
6739;SDS011;3407;49.882;10.920;2022-12-29T16:02:36;2.43;;;2.23;;
6739;SDS011;3407;49.882;10.920;2022-12-29T16:07:32;4.07;;;2.10;;
6739;SDS011;3407;49.882;10.920;2022-12-29T16:12:32;2.13;;;2.03;;
6739;SDS011;3407;49.882;10.920;2022-12-29T16:17:33;2.00;;;1.90;;
6739;SDS011;3407;49.882;10.920;2022-12-29T16:22:47;2.70;;;2.50;;
6739;SDS011;3407;49.882;10.920;2022-12-29T16:27:45;11.33;;;6.33;;
6739;SDS011;3407;49.882;10.920;2022-12-29T16:32:45;3.83;;;3.10;;
6739;SDS011;3407;49.882;10.920;2022-12-29T16:37:44;5.20;;;2.47;;
6739;SDS011;3407;49.882;10.920;2022-12-29T16:47:41;6.43;;;1.97;;
6739;SDS011;3407;49.882;10.920;2022-12-29T16:52:36;4.77;;;1.80;;
6739;SDS011;3407;49.882;10.920;2022-12-29T16:57:33;1.70;;;1.60;;
6739;SDS011;3407;49.882;10.920;2022-12-29T17:02:31;2.13;;;1.90;;
6739;SDS011;3407;49.882;10.920;2022-12-29T17:07:28;1.70;;;1.60;;
6739;SDS011;3407;49.882;10.920;2022-12-29T17:12:26;1.97;;;1.83;;
6739;SDS011;3407;49.882;10.920;2022-12-29T17:22:24;1.60;;;1.50;;
6739;SDS011;3407;49.882;10.920;2022-12-29T17:32:24;2.37;;;2.00;;
6739;SDS011;3407;49.882;10.920;2022-12-29T17:42:18;1.63;;;1.53;;
6739;SDS011;3407;49.882;10.920;2022-12-29T17:47:14;1.90;;;1.80;;
6739;SDS011;3407;49.882;10.920;2022-12-29T17:52:10;2.03;;;1.83;;
6739;SDS011;3407;49.882;10.920;2022-12-29T17:57:12;1.70;;;1.60;;
6739;SDS011;3407;49.882;10.920;2022-12-29T18:07:27;2.27;;;1.70;;
6739;SDS011;3407;49.882;10.920;2022-12-29T18:12:29;2.50;;;1.70;;
6739;SDS011;3407;49.882;10.920;2022-12-29T18:17:29;7.10;;;4.60;;
6739;SDS011;3407;49.882;10.920;2022-12-29T18:22:25;4.33;;;2.87;;
6739;SDS011;3407;49.882;10.920;2022-12-29T18:27:22;2.37;;;1.90;;
6739;SDS011;3407;49.882;10.920;2022-12-29T18:32:18;5.83;;;2.13;;
6739;SDS011;3407;49.882;10.920;2022-12-29T18:37:15;2.00;;;1.83;;
6739;SDS011;3407;49.882;10.920;2022-12-29T18:47:11;2.47;;;2.27;;
6739;SDS011;3407;49.882;10.920;2022-12-29T18:52:10;2.57;;;1.63;;
6739;SDS011;3407;49.882;10.920;2022-12-29T18:57:06;1.90;;;1.70;;
6739;SDS011;3407;49.882;10.920;2022-12-29T19:02:02;3.43;;;2.00;;
6739;SDS011;3407;49.882;10.920;2022-12-29T19:06:57;3.57;;;2.00;;
6739;SDS011;3407;49.882;10.920;2022-12-29T19:11:53;4.90;;;2.37;;
6739;SDS011;3407;49.882;10.920;2022-12-29T19:16:48;2.37;;;2.17;;
6739;SDS011;3407;49.882;10.920;2022-12-29T19:21:44;2.40;;;2.20;;
6739;SDS011;3407;49.882;10.920;2022-12-29T19:26:40;2.60;;;2.40;;
6739;SDS011;3407;49.882;10.920;2022-12-29T19:31:36;2.03;;;1.93;;
6739;SDS011;3407;49.882;10.920;2022-12-29T19:36:32;3.63;;;2.40;;
6739;SDS011;3407;49.882;10.920;2022-12-29T19:41:27;6.00;;;5.37;;
6739;SDS011;3407;49.882;10.920;2022-12-29T19:46:23;3.20;;;2.90;;
6739;SDS011;3407;49.882;10.920;2022-12-29T19:51:19;3.97;;;2.20;;
6739;SDS011;3407;49.882;10.920;2022-12-29T19:56:15;4.30;;;2.43;;
6739;SDS011;3407;49.882;10.920;2022-12-29T20:01:12;5.27;;;2.80;;
6739;SDS011;3407;49.882;10.920;2022-12-29T20:06:13;2.70;;;2.50;;
6739;SDS011;3407;49.882;10.920;2022-12-29T20:11:14;2.00;;;1.90;;
6739;SDS011;3407;49.882;10.920;2022-12-29T20:16:12;5.57;;;3.37;;
6739;SDS011;3407;49.882;10.920;2022-12-29T20:21:11;4.03;;;3.43;;
6739;SDS011;3407;49.882;10.920;2022-12-29T20:26:14;4.93;;;2.90;;
6739;SDS011;3407;49.882;10.920;2022-12-29T20:36:15;5.43;;;2.30;;
6739;SDS011;3407;49.882;10.920;2022-12-29T20:41:13;6.43;;;4.17;;
6739;SDS011;3407;49.882;10.920;2022-12-29T20:46:10;7.80;;;5.37;;
6739;SDS011;3407;49.882;10.920;2022-12-29T20:51:08;8.10;;;4.87;;
6739;SDS011;3407;49.882;10.920;2022-12-29T20:56:06;7.27;;;4.00;;
6739;SDS011;3407;49.882;10.920;2022-12-29T21:01:06;5.37;;;4.40;;
6739;SDS011;3407;49.882;10.920;2022-12-29T21:06:03;5.20;;;4.33;;
6739;SDS011;3407;49.882;10.920;2022-12-29T21:11:00;8.23;;;5.43;;
6739;SDS011;3407;49.882;10.920;2022-12-29T21:15:58;10.13;;;6.23;;
6739;SDS011;3407;49.882;10.920;2022-12-29T21:21:06;5.53;;;4.20;;
6739;SDS011;3407;49.882;10.920;2022-12-29T21:26:07;8.53;;;4.70;;
6739;SDS011;3407;49.882;10.920;2022-12-29T21:31:08;8.20;;;6.23;;
6739;SDS011;3407;49.882;10.920;2022-12-29T21:36:06;7.03;;;4.30;;
6739;SDS011;3407;49.882;10.920;2022-12-29T21:41:03;7.03;;;4.37;;
6739;SDS011;3407;49.882;10.920;2022-12-29T21:46:00;6.80;;;4.60;;
6739;SDS011;3407;49.882;10.920;2022-12-29T21:51:06;6.33;;;3.73;;
6739;SDS011;3407;49.882;10.920;2022-12-29T21:56:23;6.70;;;3.83;;
6739;SDS011;3407;49.882;10.920;2022-12-29T22:01:20;4.10;;;3.33;;
6739;SDS011;3407;49.882;10.920;2022-12-29T22:06:35;4.00;;;3.70;;
6739;SDS011;3407;49.882;10.920;2022-12-29T22:11:49;4.83;;;3.50;;
6739;SDS011;3407;49.882;10.920;2022-12-29T22:17:03;4.43;;;3.27;;
6739;SDS011;3407;49.882;10.920;2022-12-29T22:21:59;4.27;;;3.13;;
6739;SDS011;3407;49.882;10.920;2022-12-29T22:26:55;3.20;;;2.90;;
6739;SDS011;3407;49.882;10.920;2022-12-29T22:31:51;4.10;;;3.23;;
6739;SDS011;3407;49.882;10.920;2022-12-29T22:36:46;3.70;;;3.30;;
6739;SDS011;3407;49.882;10.920;2022-12-29T22:41:42;4.73;;;3.43;;
6739;SDS011;3407;49.882;10.920;2022-12-29T22:46:37;4.03;;;3.63;;
6739;SDS011;3407;49.882;10.920;2022-12-29T22:51:33;6.77;;;3.67;;
6739;SDS011;3407;49.882;10.920;2022-12-29T22:56:28;4.13;;;3.03;;
6739;SDS011;3407;49.882;10.920;2022-12-29T23:01:24;6.47;;;3.60;;
6739;SDS011;3407;49.882;10.920;2022-12-29T23:06:20;5.13;;;3.23;;
6739;SDS011;3407;49.882;10.920;2022-12-29T23:11:15;3.30;;;3.10;;
6739;SDS011;3407;49.882;10.920;2022-12-29T23:16:11;6.80;;;3.20;;
6739;SDS011;3407;49.882;10.920;2022-12-29T23:21:07;5.17;;;3.43;;
6739;SDS011;3407;49.882;10.920;2022-12-29T23:26:03;3.80;;;3.00;;
6739;SDS011;3407;49.882;10.920;2022-12-29T23:31:00;5.67;;;2.93;;
6739;SDS011;3407;49.882;10.920;2022-12-29T23:35:55;3.23;;;2.93;;
6739;SDS011;3407;49.882;10.920;2022-12-29T23:40:51;4.43;;;2.70;;
6739;SDS011;3407;49.882;10.920;2022-12-29T23:45:46;3.33;;;2.63;;
6739;SDS011;3407;49.882;10.920;2022-12-29T23:50:42;25.93;;;12.90;;
6739;SDS011;3407;49.882;10.920;2022-12-29T23:55:37;15.53;;;8.80;;
